SKRG

José María Córdova International Airport

Airport
ICAO code
SKRG
IATA Code
MDE
Summary
ICAO Region
CARSAM
ICAO Territory
Location

Rionegro, Antioquia

Serving
Medellín
Elevation
7027 ft
Coordinates
6° 10' 15" N , 75° 25' 39" W
KCC
Metar
Observation
SKRG 062300Z 07006KT 9999 SCT020TCU BKN080 18/14 Q1022 NOSIG RMK TCU S/E A3021
Station
Rionegro / J. M. Cordova
Date/Time
2023-02-06 23:00:00
Wind direction
70°
Wind speed
06 kts
Lowest cloud amount
scattered clouds
Temperature
18°C
Dew point
14°C
Humidity
77%
QNH
1022 hPa
Weather condition
n/a

José María Córdova International Airport is located in the city of Rionegro, 20 kilometres (12 mi) south-east of Medellín.

Climatology

Tropical rainforest climate (Köppen climate classification Af)

Runways

Designator Length Width Surface Rops
18/36 3500 45 ASP Yes/Yes

Airport map

Aerial View

SKYbrary Partners:

Safety knowledge contributed by: